Impacts TAF Board
For situational awareness. Not to be used for flight planning purposes.
IDs:

KPIT - Pittsburgh Intl, PA, US

Issued at 2320 UTC 23 Oct 2019
Updated at 0207 UTC 24 Oct 2019
Potential Impact None Slight Moderate High
Time<<24/15Z 24/16Z 24/17Z 24/18Z 24/19Z 24/20Z 24/21Z 24/22Z 24/23Z 25/00Z 25/01Z 25/02Z 25/03Z>>
Type PRVL PRVL PRVL PRVL PRVL PRVL PRVL PRVL PRVL PRVL PRVL PRVL PRVL
VIS >6 >6 >6 >6 >6 >6 >6 >6 >6 >6 >6 >6 >6
CIG 120 120 -- -- -- -- -- -- -- -- -- -- --
Cover BKN BKN SKC SKC SKC SKC SKC SKC SKC SCT SCT SCT SCT
FltCat VFR VFR VFR VFR VFR VFR VFR VFR VFR VFR VFR VFR VFR
WX -- -- -- -- -- -- -- -- -- -- -- -- --
WDir 180 180 220 220 220 220 220 220 220 VRB VRB VRB VRB
WSpd 6 6 10 10 10 10 10 10 10 3 3 3 3
WGst -- -- 18 18 18 18 18 18 18 -- -- -- --
Raw TAF
KPIT 232320Z 2400/2506 21006KT P6SM SKC
  FM240800 18006KT P6SM BKN120
  FM241700 22010G18KT P6SM SKC
  FM250000 VRB03KT P6SM SCT120


METAR Board
Radar Display
Forecast Discussion
For situational awareness. Not to be used for flight planning purposes.